Time;durP1;ratioP1;P1;durP2;ratioP2;P2;SDS_P1;SDS_P2;PMS_P1;PMS_P2;Temp;Humidity;BMP_temperature;BMP_pressure;BME280_temperature;BME280_humidity;BME280_pressure;Samples;Min_cycle;Max_cycle;Signal;HPM_P1;HPM_P2
2021/12/10 00:01:59;;;;;;;25.17;8.07;;;;;;;3.59;93.71;99725.53;5033506;28;20054;-81
2021/12/10 00:04:29;;;;;;;17.92;7.50;;;;;;;3.59;93.55;99717.78;5046034;28;20017;-81
2021/12/10 00:06:57;;;;;;;17.63;6.93;;;;;;;3.58;93.36;99713.47;5017630;28;20052;-81
2021/12/10 00:09:25;;;;;;;14.23;6.75;;;;;;;3.58;93.51;99710.88;5009944;28;20017;-81
2021/12/10 00:11:56;;;;;;;13.23;7.22;;;;;;;3.59;93.86;99710.84;5022651;28;20037;-81
2021/12/10 00:14:25;;;;;;;19.40;7.38;;;;;;;3.55;93.53;99709.25;5010455;28;20348;-81
2021/12/10 00:16:51;;;;;;;19.42;7.50;;;;;;;3.54;93.14;99698.94;5025003;28;20029;-81
2021/12/10 00:22:39;;;;;;;13.68;8.00;;;;;;;3.52;93.27;99698.97;5023930;28;20050;-81
2021/12/10 00:25:07;;;;;;;14.07;7.47;;;;;;;3.49;93.16;99688.69;5038303;28;20350;-81
2021/12/10 00:27:33;;;;;;;14.70;8.43;;;;;;;3.48;93.12;99691.38;5025960;28;20025;-81
2021/12/10 00:30:08;;;;;;;16.15;7.75;;;;;;;3.47;93.08;99672.38;5007424;28;20230;-81
2021/12/10 00:32:43;;;;;;;21.73;8.05;;;;;;;3.44;92.88;99669.91;5027505;28;20364;-81
2021/12/10 00:35:19;;;;;;;16.10;7.95;;;;;;;3.43;93.20;99663.00;5038517;28;20029;-81
2021/12/10 00:37:45;;;;;;;17.42;8.05;;;;;;;3.43;93.22;99663.84;5040270;28;20037;-81
2021/12/10 00:40:11;;;;;;;22.17;10.65;;;;;;;3.42;93.29;99649.22;5008367;28;20087;-81
2021/12/10 00:42:36;;;;;;;20.52;10.23;;;;;;;3.38;93.07;99639.00;5018005;28;20045;-81
2021/12/10 00:45:05;;;;;;;21.55;10.43;;;;;;;3.36;93.14;99626.09;5055146;28;20371;-81
2021/12/10 00:47:30;;;;;;;21.50;10.90;;;;;;;3.36;93.28;99626.09;5066631;28;20043;-81
2021/12/10 00:49:55;;;;;;;19.30;11.20;;;;;;;3.36;93.35;99614.91;5039908;28;20037;-81
2021/12/10 00:52:21;;;;;;;21.00;11.60;;;;;;;3.36;93.31;99614.91;5036131;28;20028;-81
2021/12/10 00:54:47;;;;;;;23.00;11.43;;;;;;;3.37;93.49;99614.03;5064347;28;20197;-81
2021/12/10 00:57:12;;;;;;;19.15;10.43;;;;;;;3.39;93.60;99605.31;5064105;28;20224;-81
2021/12/10 00:59:38;;;;;;;20.80;10.82;;;;;;;3.38;93.46;99593.25;5046871;28;20048;-81
2021/12/10 01:02:08;;;;;;;19.60;10.98;;;;;;;3.40;93.52;99591.50;5063506;28;20028;-81
2021/12/10 01:04:35;;;;;;;19.38;9.85;;;;;;;3.39;93.32;99584.63;5062890;28;20048;-81
2021/12/10 01:07:03;;;;;;;18.80;9.65;;;;;;;3.34;92.89;99581.31;5063557;28;20039;-81
2021/12/10 01:09:31;;;;;;;18.30;9.55;;;;;;;3.31;92.75;99581.44;5063687;28;20028;-81
2021/12/10 01:12:29;;;;;;;16.33;8.52;;;;;;;3.30;92.95;99579.72;5054960;28;20059;-81
2021/12/10 01:26:08;;;;;;;14.27;8.65;;;;;;;3.23;93.23;99542.00;5036524;28;20090;-81
2021/12/10 01:28:36;;;;;;;16.50;9.10;;;;;;;3.23;93.15;99542.00;5052463;28;20032;-81
2021/12/10 01:31:01;;;;;;;19.98;9.32;;;;;;;3.22;93.05;99540.28;5027007;28;20067;-81
2021/12/10 01:33:26;;;;;;;13.73;9.02;;;;;;;3.23;93.11;99542.00;5039029;28;20205;-81
2021/12/10 01:35:54;;;;;;;15.98;8.63;;;;;;;3.23;93.21;99534.22;5032471;28;20097;-81
2021/12/10 01:38:20;;;;;;;15.27;8.20;;;;;;;3.22;93.06;99535.97;5019942;28;20279;-81
2021/12/10 01:40:48;;;;;;;14.90;8.82;;;;;;;3.23;93.09;99526.47;5017277;28;20386;-81
2021/12/10 01:43:22;;;;;;;13.57;8.20;;;;;;;3.25;93.35;99527.25;5026678;28;20096;-81
2021/12/10 01:45:48;;;;;;;20.92;9.38;;;;;;;3.22;93.13;99528.22;5057431;28;20045;-81
2021/12/10 01:48:17;;;;;;;13.00;8.30;;;;;;;3.19;92.98;99528.31;5060196;28;20037;-81
2021/12/10 01:50:42;;;;;;;16.85;8.90;;;;;;;3.20;93.01;99518.78;5030057;28;20028;-81
2021/12/10 01:53:10;;;;;;;21.58;9.88;;;;;;;3.17;92.91;99516.31;5080495;28;20040;-81
2021/12/10 01:55:37;;;;;;;15.57;8.70;;;;;;;3.15;92.83;99507.78;5083515;28;20044;-81
2021/12/10 01:58:03;;;;;;;11.73;8.60;;;;;;;3.13;92.92;99505.22;5029568;28;20037;-81
2021/12/10 02:00:31;;;;;;;14.98;7.50;;;;;;;3.13;92.89;99487.13;5030356;28;20041;-81
2021/12/10 02:02:57;;;;;;;16.52;7.82;;;;;;;3.13;92.97;99487.13;5051033;28;20047;-81
2021/12/10 02:05:22;;;;;;;13.13;7.47;;;;;;;3.14;93.04;99483.63;5047666;28;20028;-81
2021/12/10 02:07:48;;;;;;;12.07;7.75;;;;;;;3.13;93.05;99476.75;5046792;28;20040;-81
2021/12/10 02:10:16;;;;;;;15.88;8.70;;;;;;;3.13;92.90;99463.84;5029881;28;20032;-81
2021/12/10 02:12:42;;;;;;;9.77;7.28;;;;;;;3.13;93.11;99456.06;5025962;28;20143;-81
2021/12/10 02:15:10;;;;;;;13.52;7.63;;;;;;;3.14;93.04;99456.91;5010055;28;20244;-81
2021/12/10 02:17:37;;;;;;;10.93;7.50;;;;;;;3.11;92.98;99447.53;4994040;28;20356;-81
2021/12/10 02:20:17;;;;;;;15.00;6.70;;;;;;;3.11;93.09;99449.22;5045541;28;20036;-81
2021/12/10 02:22:44;;;;;;;12.20;6.70;;;;;;;3.10;93.12;99443.22;5031470;28;20056;-81
2021/12/10 02:25:10;;;;;;;10.65;6.43;;;;;;;3.11;93.11;99433.72;5047006;28;20205;-81
2021/12/10 02:27:35;;;;;;;10.13;6.38;;;;;;;3.11;93.46;99444.94;5029693;28;20064;-81
2021/12/10 02:30:00;;;;;;;11.77;6.28;;;;;;;3.12;93.24;99430.25;5046273;28;20041;-81
2021/12/10 02:32:27;;;;;;;11.05;5.93;;;;;;;3.14;93.25;99436.22;5046339;28;20045;-81
2021/12/10 02:34:53;;;;;;;14.98;5.43;;;;;;;3.16;93.33;99422.31;5029542;28;20059;-81
2021/12/10 02:37:19;;;;;;;9.85;5.40;;;;;;;3.19;93.24;99413.63;5063512;28;20225;-81
2021/12/10 02:39:44;;;;;;;7.80;5.18;;;;;;;3.16;93.10;99409.38;5052828;28;20342;-81
2021/12/10 02:42:10;;;;;;;8.95;5.55;;;;;;;3.19;93.27;99400.69;5055274;28;20042;-81
2021/12/10 02:44:35;;;;;;;9.70;4.85;;;;;;;3.22;93.39;99403.16;5045852;28;20532;-81
2021/12/10 02:47:01;;;;;;;10.10;5.18;;;;;;;3.24;93.28;99399.63;5028833;28;20100;-81
2021/12/10 02:49:27;;;;;;;21.15;5.53;;;;;;;3.25;93.21;99403.06;5054586;28;20045;-81
2021/12/10 02:51:53;;;;;;;9.48;5.45;;;;;;;3.24;93.09;99398.81;5031307;28;20229;-81
2021/12/10 02:54:23;;;;;;;10.40;4.68;;;;;;;3.25;93.00;99383.19;5034948;28;20044;-81
2021/12/10 02:56:49;;;;;;;11.20;4.40;;;;;;;3.25;93.01;99375.44;5025913;28;20037;-81
2021/12/10 02:59:15;;;;;;;9.60;4.32;;;;;;;3.24;92.92;99378.09;5044307;28;20036;-81
2021/12/10 03:01:43;;;;;;;9.98;4.22;;;;;;;3.26;93.01;99371.13;5048315;28;20039;-81
2021/12/10 03:04:08;;;;;;;8.93;4.65;;;;;;;3.26;92.97;99364.22;5048447;28;20036;-81
2021/12/10 03:06:35;;;;;;;6.40;3.90;;;;;;;3.26;93.28;99351.28;5065260;28;20360;-81
2021/12/10 03:09:00;;;;;;;17.08;4.43;;;;;;;3.27;93.37;99359.88;5047915;28;20276;-81
2021/12/10 03:11:29;;;;;;;12.95;4.45;;;;;;;3.25;93.34;99362.50;5043535;28;20144;-81
2021/12/10 03:13:54;;;;;;;13.27;4.45;;;;;;;3.24;93.45;99358.25;5015338;28;20016;-81
2021/12/10 03:16:21;;;;;;;11.57;5.18;;;;;;;3.26;93.76;99350.44;5047549;28;20123;-81
2021/12/10 03:18:46;;;;;;;9.50;4.43;;;;;;;3.26;93.69;99343.50;5048035;28;20039;-81
2021/12/10 03:21:12;;;;;;;10.45;4.38;;;;;;;3.29;93.90;99341.72;5063999;28;20028;-81
2021/12/10 03:23:42;;;;;;;12.63;4.45;;;;;;;3.29;94.15;99332.19;5047471;28;20247;-81
2021/12/10 03:26:10;;;;;;;8.07;4.07;;;;;;;3.28;94.22;99329.69;5064749;28;20047;-81
2021/12/10 03:28:37;;;;;;;10.23;3.90;;;;;;;3.29;94.38;99327.00;5063506;28;20037;-79
2021/12/10 03:31:03;;;;;;;9.07;4.32;;;;;;;3.30;94.25;99322.72;5063462;28;20347;-79
2021/12/10 03:33:28;;;;;;;6.45;4.03;;;;;;;3.30;94.33;99320.97;5062733;28;20044;-79
2021/12/10 03:35:54;;;;;;;7.97;4.35;;;;;;;3.30;94.23;99315.78;5063533;28;20040;-79
2021/12/10 03:38:21;;;;;;;11.63;4.53;;;;;;;3.31;94.28;99317.47;5062859;28;20037;-79
2021/12/10 03:40:47;;;;;;;7.22;4.45;;;;;;;3.32;94.23;99311.38;5023983;28;20362;-79
2021/12/10 03:43:13;;;;;;;10.07;5.05;;;;;;;3.34;94.35;99303.59;5042931;28;20032;-79
2021/12/10 03:45:40;;;;;;;6.82;4.30;;;;;;;3.35;94.37;99300.09;5010109;28;20342;-79
2021/12/10 03:48:14;;;;;;;4.88;3.55;;;;;;;3.35;94.43;99289.75;5025930;28;20395;-79
2021/12/10 03:50:40;;;;;;;5.88;3.97;;;;;;;3.35;94.45;99288.00;5015596;28;20246;-79
2021/12/10 03:53:05;;;;;;;9.18;3.85;;;;;;;3.32;94.53;99277.75;5045939;28;20025;-79
2021/12/10 03:55:31;;;;;;;7.72;4.00;;;;;;;3.32;94.47;99272.56;5043650;28;20036;-79
2021/12/10 03:57:56;;;;;;;8.40;3.60;;;;;;;3.34;94.50;99270.78;5042485;28;20040;-79
2021/12/10 04:00:24;;;;;;;10.15;3.65;;;;;;;3.37;94.62;99280.19;5053790;28;20060;-79
2021/12/10 04:02:50;;;;;;;12.93;4.25;;;;;;;3.37;94.75;99272.44;5046303;28;20316;-79
2021/12/10 04:05:15;;;;;;;8.20;3.63;;;;;;;3.36;94.71;99262.97;5062349;28;20264;-79
2021/12/10 04:07:40;;;;;;;10.15;3.60;;;;;;;3.36;94.77;99263.78;5062143;28;20051;-79
2021/12/10 04:10:07;;;;;;;13.05;4.00;;;;;;;3.37;94.60;99249.13;5045669;28;20044;-79
2021/12/10 04:12:32;;;;;;;13.32;3.92;;;;;;;3.37;94.55;99249.13;5062028;28;20032;-79
2021/12/10 04:14:58;;;;;;;8.70;3.58;;;;;;;3.37;94.58;99252.56;5045413;28;20051;-79
2021/12/10 04:17:23;;;;;;;7.93;3.13;;;;;;;3.36;94.69;99240.50;5063979;28;20037;-79
2021/12/10 04:19:50;;;;;;;5.68;3.25;;;;;;;3.37;94.71;99233.59;5042107;28;20051;-79
2021/12/10 04:22:16;;;;;;;6.72;3.03;;;;;;;3.36;94.48;99232.75;5026066;28;20060;-79
2021/12/10 04:24:42;;;;;;;6.65;3.00;;;;;;;3.37;94.49;99231.84;5025484;28;20033;-79
2021/12/10 04:27:08;;;;;;;7.80;3.50;;;;;;;3.39;94.65;99226.63;5059763;28;20075;-79
2021/12/10 04:29:33;;;;;;;3.45;2.95;;;;;;;3.38;94.71;99214.56;5042020;28;20037;-79
2021/12/10 04:31:59;;;;;;;7.63;2.70;;;;;;;3.39;94.67;99224.03;5008466;28;20090;-79
2021/12/10 04:34:25;;;;;;;10.00;3.25;;;;;;;3.38;94.53;99210.22;5008771;28;20120;-79
2021/12/10 04:36:51;;;;;;;6.78;2.72;;;;;;;3.39;94.73;99211.94;5008699;28;20035;-79
2021/12/10 04:39:17;;;;;;;9.00;3.35;;;;;;;3.41;94.65;99196.34;5025139;28;20025;-79
2021/12/10 04:41:42;;;;;;;7.57;2.70;;;;;;;3.40;94.54;99195.53;5058723;28;20103;-79
2021/12/10 04:44:08;;;;;;;5.18;2.70;;;;;;;3.39;94.66;99196.41;5041857;28;20356;-79
2021/12/10 04:46:33;;;;;;;6.22;2.60;;;;;;;3.41;94.58;99193.78;5041629;28;20110;-79
2021/12/10 04:49:08;;;;;;;5.80;2.70;;;;;;;3.41;94.48;99197.19;5024742;28;20021;-79
2021/12/10 04:51:39;;;;;;;12.80;3.13;;;;;;;3.42;94.64;99191.13;5038808;28;20036;-79
2021/12/10 04:54:05;;;;;;;4.90;2.97;;;;;;;3.43;94.65;99190.22;5061608;28;20040;-79
2021/12/10 04:56:31;;;;;;;6.65;2.60;;;;;;;3.42;94.59;99185.94;5060990;28;20056;-79
2021/12/10 04:58:57;;;;;;;7.13;2.72;;;;;;;3.42;94.30;99187.69;5061405;28;20037;-79
2021/12/10 05:01:23;;;;;;;8.27;2.75;;;;;;;3.44;94.46;99172.97;5055211;28;20380;-79
2021/12/10 05:03:48;;;;;;;3.67;2.30;;;;;;;3.45;94.33;99166.88;5055146;28;20033;-79
2021/12/10 05:06:14;;;;;;;10.70;3.03;;;;;;;3.43;94.36;99168.66;5040804;28;20049;-79
2021/12/10 05:08:39;;;;;;;5.85;2.45;;;;;;;3.43;94.28;99166.09;5022466;28;20032;-79
2021/12/10 05:11:06;;;;;;;10.82;2.95;;;;;;;3.45;94.23;99166.88;5025175;28;20033;-79
2021/12/10 05:13:32;;;;;;;5.88;2.47;;;;;;;3.45;94.38;99161.69;5021685;28;20399;-79
2021/12/10 05:15:59;;;;;;;7.90;2.83;;;;;;;3.45;94.32;99157.34;5011076;28;20101;-79
2021/12/10 05:18:35;;;;;;;8.57;2.75;;;;;;;3.43;94.51;99156.56;5021581;28;20025;-79
2021/12/10 05:21:01;;;;;;;5.72;2.50;;;;;;;3.44;94.26;99158.25;5025547;28;20039;-79
2021/12/10 05:23:26;;;;;;;10.75;3.08;;;;;;;3.43;94.18;99150.56;5037294;28;20241;-79
2021/12/10 05:25:51;;;;;;;5.97;2.60;;;;;;;3.45;94.33;99156.50;5021459;28;20336;-79
2021/12/10 05:28:17;;;;;;;5.55;2.92;;;;;;;3.46;94.40;99151.28;5049236;28;20348;-79
2021/12/10 05:30:43;;;;;;;7.88;2.75;;;;;;;3.47;94.42;99152.13;5024240;28;20092;-79
2021/12/10 05:33:14;;;;;;;9.73;2.78;;;;;;;3.47;94.51;99152.13;5058566;28;20112;-79
2021/12/10 05:35:40;;;;;;;6.10;2.70;;;;;;;3.46;94.35;99153.88;5026182;28;20029;-79
2021/12/10 05:38:05;;;;;;;5.82;2.30;;;;;;;3.46;94.33;99146.09;5040985;28;20083;-79
2021/12/10 05:40:31;;;;;;;7.80;2.53;;;;;;;3.46;94.26;99146.09;5040554;28;20024;-79
2021/12/10 05:42:56;;;;;;;5.05;2.03;;;;;;;3.48;94.42;99145.22;5024462;28;20029;-79
2021/12/10 05:45:22;;;;;;;5.93;2.00;;;;;;;3.46;94.35;99146.09;5040512;28;20044;-79
2021/12/10 05:47:48;;;;;;;7.63;2.55;;;;;;;3.46;94.43;99148.69;5024368;28;20425;-79
2021/12/10 05:50:16;;;;;;;5.63;2.33;;;;;;;3.48;94.49;99150.41;5041074;28;20092;-79
2021/12/10 05:52:41;;;;;;;4.78;2.28;;;;;;;3.46;94.32;99142.69;5024255;28;20230;-79
2021/12/10 05:55:07;;;;;;;2.92;2.33;;;;;;;3.46;94.43;99145.28;5024490;28;20043;-79
2021/12/10 05:57:33;;;;;;;8.02;2.25;;;;;;;3.46;94.48;99135.75;5024253;28;20374;-79
2021/12/10 05:59:58;;;;;;;7.97;2.83;;;;;;;3.48;94.47;99142.63;5040521;28;20318;-79
2021/12/10 06:02:24;;;;;;;11.52;2.70;;;;;;;3.46;94.48;99142.69;5043004;28;20033;-79
2021/12/10 06:04:49;;;;;;;4.45;2.22;;;;;;;3.45;94.82;99138.41;5058490;28;20024;-79
2021/12/10 06:07:14;;;;;;;6.03;2.30;;;;;;;3.44;94.53;99137.56;5024332;28;20040;-79
2021/12/10 06:09:40;;;;;;;7.97;2.20;;;;;;;3.43;94.46;99145.38;5024169;28;20033;-79
2021/12/10 06:12:06;;;;;;;6.28;2.53;;;;;;;3.44;94.46;99153.09;5040656;28;20035;-79
2021/12/10 06:14:31;;;;;;;6.85;2.00;;;;;;;3.44;94.71;99154.84;5039897;28;20090;-79
2021/12/10 06:16:57;;;;;;;6.78;2.20;;;;;;;3.46;94.70;99155.63;5021953;28;20035;-79
2021/12/10 06:19:22;;;;;;;7.47;2.55;;;;;;;3.49;94.79;99150.31;5021094;28;20044;-79
2021/12/10 06:21:48;;;;;;;11.20;2.95;;;;;;;3.49;94.52;99157.25;5020674;28;20492;-79
2021/12/10 06:24:13;;;;;;;5.00;2.22;;;;;;;3.44;94.64;99142.75;5052062;28;20051;-79
2021/12/10 06:26:39;;;;;;;7.82;2.15;;;;;;;3.44;94.55;99147.06;5043253;28;20107;-79
2021/12/10 06:29:04;;;;;;;6.22;2.60;;;;;;;3.45;94.66;99151.34;5071944;28;20039;-79
2021/12/10 06:31:30;;;;;;;17.10;2.70;;;;;;;3.46;94.74;99147.84;5039874;28;20032;-79
2021/12/10 06:33:55;;;;;;;3.25;1.95;;;;;;;3.46;94.66;99153.03;5007552;28;20037;-79
2021/12/10 06:36:21;;;;;;;5.00;1.80;;;;;;;3.46;94.68;99150.44;5023239;28;20028;-79
2021/12/10 06:38:46;;;;;;;2.25;2.05;;;;;;;3.44;94.55;99153.09;5040413;28;20131;-79
2021/12/10 06:41:13;;;;;;;2.85;1.90;;;;;;;3.42;94.51;99146.25;5032177;28;20107;-79
2021/12/10 06:43:39;;;;;;;4.13;1.77;;;;;;;3.41;94.52;99147.19;5064079;28;20048;-79
2021/12/10 06:46:06;;;;;;;5.90;1.98;;;;;;;3.43;94.60;99151.38;5078215;28;20028;-79
2021/12/10 06:48:31;;;;;;;8.00;2.40;;;;;;;3.45;94.74;99153.91;5061653;28;20336;-79
2021/12/10 06:50:59;;;;;;;6.70;1.83;;;;;;;3.45;94.79;99157.34;5010701;28;20028;-79
2021/12/10 06:53:25;;;;;;;5.85;1.98;;;;;;;3.44;94.68;99160.03;5010301;28;20025;-79
2021/12/10 06:55:51;;;;;;;9.40;2.45;;;;;;;3.42;94.65;99152.31;5061623;28;20360;-79
2021/12/10 06:58:17;;;;;;;9.93;2.50;;;;;;;3.42;94.65;99159.22;5061439;28;20105;-79
2021/12/10 07:00:45;;;;;;;6.97;2.00;;;;;;;3.41;94.92;99163.56;5027426;28;20052;-79
2021/12/10 07:03:12;;;;;;;4.40;2.60;;;;;;;3.39;94.73;99167.94;5044059;28;20099;-79
2021/12/10 07:05:37;;;;;;;7.97;2.42;;;;;;;3.39;94.72;99167.94;5008987;28;20029;-79
2021/12/10 07:08:03;;;;;;;6.05;2.10;;;;;;;3.38;94.83;99165.41;5006899;28;20017;-79
2021/12/10 07:10:28;;;;;;;8.27;2.28;;;;;;;3.39;94.80;99165.34;5023743;28;20161;-79
2021/12/10 07:12:54;;;;;;;6.53;1.98;;;;;;;3.40;94.94;99163.59;5023399;28;20037;-79
2021/12/10 07:15:19;;;;;;;4.68;1.85;;;;;;;3.41;95.06;99163.56;5006826;28;20079;-79
2021/12/10 07:17:47;;;;;;;9.68;2.40;;;;;;;3.43;94.98;99166.09;5029218;28;20337;-79
2021/12/10 07:20:14;;;;;;;5.00;2.10;;;;;;;3.44;95.19;99162.59;5019095;28;20100;-79
2021/12/10 07:22:39;;;;;;;8.30;2.53;;;;;;;3.41;95.16;99158.38;5016052;28;20061;-79
2021/12/10 07:25:06;;;;;;;13.30;2.60;;;;;;;3.43;95.14;99174.69;5033593;28;20036;-79
2021/12/10 07:27:31;;;;;;;5.85;2.45;;;;;;;3.43;95.00;99171.25;5033127;28;20268;-79
2021/12/10 07:29:56;;;;;;;8.90;3.17;;;;;;;3.40;94.94;99179.13;5046246;28;20029;-79
2021/12/10 07:32:22;;;;;;;13.68;3.75;;;;;;;3.39;94.82;99182.63;5025974;28;20537;-79
2021/12/10 07:34:47;;;;;;;7.28;2.63;;;;;;;3.42;94.91;99187.69;4993403;28;20108;-79
2021/12/10 07:37:13;;;;;;;11.60;3.22;;;;;;;3.41;94.82;99180.81;5006733;28;20033;-79
2021/12/10 07:39:38;;;;;;;6.30;3.17;;;;;;;3.40;94.95;99184.31;5035265;28;20044;-79
2021/12/10 07:42:06;;;;;;;9.10;3.38;;;;;;;3.40;95.00;99185.16;5039475;28;20048;-79
2021/12/10 07:44:32;;;;;;;7.30;2.92;;;;;;;3.40;95.07;99179.13;5007655;28;20202;-79
2021/12/10 07:47:00;;;;;;;6.00;3.05;;;;;;;3.40;95.10;99182.59;5009630;28;20053;-79
2021/12/10 07:49:29;;;;;;;7.28;3.38;;;;;;;3.40;95.11;99181.72;5007103;28;20050;-79
2021/12/10 07:51:55;;;;;;;4.90;3.17;;;;;;;3.39;94.96;99180.88;5012609;28;20045;-79
2021/12/10 07:54:21;;;;;;;6.85;3.33;;;;;;;3.41;94.98;99198.94;4999991;28;20038;-79
2021/12/10 07:56:46;;;;;;;3.83;3.10;;;;;;;3.39;95.00;99191.22;5021764;28;20133;-79
2021/12/10 07:59:12;;;;;;;6.65;3.50;;;;;;;3.38;94.81;99191.28;5025759;28;20270;-79
2021/12/10 08:01:37;;;;;;;6.13;3.00;;;;;;;3.35;94.88;99189.66;5015285;28;20768;-79
2021/12/10 08:04:03;;;;;;;6.90;3.63;;;;;;;3.34;94.92;99190.56;5057994;28;20340;-79
2021/12/10 08:06:29;;;;;;;10.32;3.88;;;;;;;3.34;94.83;99189.72;5021586;28;20067;-78
2021/12/10 08:08:55;;;;;;;10.25;4.10;;;;;;;3.35;94.85;99188.84;5029074;28;20037;-78
2021/12/10 08:11:21;;;;;;;9.68;4.10;;;;;;;3.35;94.93;99187.09;5032274;28;20321;-78
2021/12/10 08:13:46;;;;;;;7.20;3.92;;;;;;;3.36;95.07;99190.50;5024844;28;20033;-78
2021/12/10 08:16:12;;;;;;;4.15;3.25;;;;;;;3.35;95.13;99194.00;5036014;28;20041;-79
2021/12/10 08:18:37;;;;;;;10.43;3.67;;;;;;;3.34;95.08;99189.72;5015917;28;20041;-78
2021/12/10 08:21:03;;;;;;;6.88;3.63;;;;;;;3.35;95.19;99192.25;5035798;28;20096;-78
2021/12/10 08:23:29;;;;;;;8.25;3.42;;;;;;;3.36;95.21;99203.44;5037684;28;20279;-79
2021/12/10 08:25:54;;;;;;;10.23;3.70;;;;;;;3.35;95.25;99192.25;5065838;28;20225;-79
2021/12/10 08:28:22;;;;;;;9.23;3.85;;;;;;;3.38;95.18;99207.66;5044213;28;20031;-79
2021/12/10 08:30:48;;;;;;;5.90;3.13;;;;;;;3.41;95.29;99198.94;5044786;28;20040;-79
2021/12/10 08:33:14;;;;;;;7.72;3.30;;;;;;;3.41;95.16;99201.53;5025578;28;20040;-79
2021/12/10 08:35:44;;;;;;;9.25;3.70;;;;;;;3.42;95.21;99206.66;5027910;28;20039;-79
2021/12/10 08:38:10;;;;;;;8.63;3.70;;;;;;;3.43;95.29;99204.91;5037455;28;20337;-78
2021/12/10 08:40:57;;;;;;;9.30;3.55;;;;;;;3.41;95.40;99204.94;5017668;28;20087;-78
2021/12/10 08:43:23;;;;;;;5.90;3.70;;;;;;;3.42;95.26;99209.25;5013272;28;20036;-78
2021/12/10 08:45:51;;;;;;;11.30;4.15;;;;;;;3.42;95.21;99211.84;5022729;28;20037;-79
2021/12/10 08:48:16;;;;;;;7.77;3.73;;;;;;;3.42;95.29;99221.31;5040823;28;20092;-79
2021/12/10 08:50:42;;;;;;;5.05;3.65;;;;;;;3.41;95.16;99217.06;5048024;28;20083;-79
2021/12/10 08:53:09;;;;;;;4.60;3.55;;;;;;;3.40;95.07;99217.94;5038298;28;20047;-79
2021/12/10 08:55:35;;;;;;;8.77;3.70;;;;;;;3.40;95.18;99217.94;4999522;28;20040;-79
2021/12/10 08:58:01;;;;;;;4.72;3.92;;;;;;;3.38;95.21;99220.59;5008561;28;20049;-78
2021/12/10 09:00:27;;;;;;;12.13;3.78;;;;;;;3.38;95.18;99215.41;5021730;28;20041;-78
2021/12/10 09:02:54;;;;;;;12.30;4.38;;;;;;;3.38;95.12;99220.59;5052678;28;20040;-79
2021/12/10 09:05:19;;;;;;;8.73;4.22;;;;;;;3.38;95.30;99220.59;5029466;28;20071;-79
2021/12/10 09:07:45;;;;;;;6.80;4.05;;;;;;;3.41;95.28;99232.59;5033241;28;20025;-79
2021/12/10 09:10:11;;;;;;;7.53;3.88;;;;;;;3.42;95.32;99231.66;5026903;28;20336;-79
2021/12/10 09:12:37;;;;;;;10.63;4.07;;;;;;;3.43;95.36;99241.13;4994267;28;20135;-79
2021/12/10 09:15:05;;;;;;;7.30;4.05;;;;;;;3.43;95.39;99230.78;5028973;28;20041;-79
2021/12/10 09:17:31;;;;;;;9.82;4.43;;;;;;;3.43;95.46;99239.38;5033931;28;20154;-79
2021/12/10 09:19:59;;;;;;;6.22;3.97;;;;;;;3.43;95.34;99244.56;5013904;28;20037;-79
2021/12/10 09:22:25;;;;;;;4.43;3.42;;;;;;;3.43;95.31;99256.66;5034248;28;20260;-79
2021/12/10 09:24:54;;;;;;;7.13;4.10;;;;;;;3.41;95.27;99256.72;5033601;28;20351;-79
2021/12/10 09:27:19;;;;;;;4.63;3.45;;;;;;;3.41;95.33;99255.88;5024828;28;20045;-79
2021/12/10 09:29:45;;;;;;;5.07;3.63;;;;;;;3.42;95.37;99261.00;5050826;28;20039;-79
2021/12/10 09:32:12;;;;;;;6.95;3.17;;;;;;;3.43;95.45;99265.25;5001007;28;20317;-79
2021/12/10 09:34:38;;;;;;;3.70;3.30;;;;;;;3.44;95.43;99263.53;5048950;28;20037;-79
2021/12/10 09:37:03;;;;;;;7.18;3.50;;;;;;;3.45;95.43;99267.81;5040477;28;20043;-79
2021/12/10 09:39:31;;;;;;;6.35;3.63;;;;;;;3.45;95.35;99267.81;5029713;28;20040;-79
2021/12/10 09:41:56;;;;;;;7.85;3.60;;;;;;;3.45;95.40;99272.97;5042206;28;20044;-79
2021/12/10 09:44:22;;;;;;;4.85;3.13;;;;;;;3.46;95.34;99274.69;5021024;28;20251;-79
2021/12/10 09:46:49;;;;;;;8.55;3.17;;;;;;;3.45;95.20;99275.56;5039470;28;20336;-79
2021/12/10 09:49:15;;;;;;;6.07;3.58;;;;;;;3.47;95.31;99281.53;5043814;28;20269;-79
2021/12/10 09:51:43;;;;;;;12.18;4.05;;;;;;;3.48;95.27;99287.56;5042603;28;20119;-79
2021/12/10 09:54:11;;;;;;;10.73;3.80;;;;;;;3.47;95.24;99291.88;5027826;28;20031;-79
2021/12/10 09:56:38;;;;;;;7.30;3.40;;;;;;;3.47;95.19;99286.69;5028616;28;20417;-79
2021/12/10 09:59:04;;;;;;;7.15;3.13;;;;;;;3.46;95.04;99285.03;5023376;28;20025;-79
2021/12/10 10:01:34;;;;;;;6.38;3.30;;;;;;;3.48;95.15;99290.16;5023660;28;20357;-79
2021/12/10 10:04:01;;;;;;;8.45;3.50;;;;;;;3.49;95.23;99284.91;5045349;28;20036;-79
2021/12/10 10:06:33;;;;;;;7.72;3.67;;;;;;;3.51;95.27;99287.44;5034007;28;20030;-79
2021/12/10 10:08:59;;;;;;;15.25;4.88;;;;;;;3.49;95.25;99292.66;5037082;28;20321;-79
2021/12/10 10:11:27;;;;;;;9.35;3.80;;;;;;;3.47;95.04;99297.06;5027003;28;20128;-79
2021/12/10 10:13:53;;;;;;;9.87;4.20;;;;;;;3.46;95.02;99293.63;5019001;28;20339;-79
2021/12/10 10:16:20;;;;;;;12.30;4.05;;;;;;;3.48;95.09;99291.00;5015087;28;20074;-79
2021/12/10 10:18:46;;;;;;;12.00;4.13;;;;;;;3.48;95.10;99296.16;5048599;28;20032;-79
2021/12/10 10:21:17;;;;;;;10.13;3.70;;;;;;;3.49;95.13;99297.00;5026083;28;20179;-79
2021/12/10 10:23:43;;;;;;;8.70;3.75;;;;;;;3.51;95.25;99303.84;5047521;28;20040;-79
2021/12/10 10:26:17;;;;;;;9.25;4.43;;;;;;;3.50;95.19;99302.13;5039480;28;20321;-79
2021/12/10 10:28:43;;;;;;;11.38;4.18;;;;;;;3.50;95.14;99298.72;5045141;28;20367;-79
2021/12/10 10:31:17;;;;;;;10.13;4.20;;;;;;;3.51;95.24;99305.56;5032352;28;20025;-79
2021/12/10 10:33:44;;;;;;;7.22;3.80;;;;;;;3.52;95.18;99299.50;5033674;28;20243;-79
2021/12/10 10:36:18;;;;;;;7.80;3.65;;;;;;;3.53;95.19;99299.44;5050201;28;20036;-79
2021/12/10 10:38:48;;;;;;;10.85;4.43;;;;;;;3.53;95.29;99299.44;5047139;28;20024;-79
2021/12/10 10:41:14;;;;;;;6.90;3.72;;;;;;;3.53;95.34;99304.63;5061767;28;20041;-79
2021/12/10 10:43:39;;;;;;;8.00;3.60;;;;;;;3.54;95.24;99302.88;5036714;28;20036;-79
2021/12/10 10:46:05;;;;;;;16.42;4.70;;;;;;;3.54;95.16;99298.53;5034972;28;20129;-79
2021/12/10 10:48:31;;;;;;;26.13;6.18;;;;;;;3.55;95.21;99308.00;5061926;28;20044;-79
2021/12/10 10:51:02;;;;;;;15.18;5.25;;;;;;;3.55;95.29;99310.59;5058056;28;20355;-79
2021/12/10 10:53:31;;;;;;;27.13;5.85;;;;;;;3.56;95.18;99314.84;5015714;28;20029;-79
2021/12/10 10:56:07;;;;;;;16.65;4.60;;;;;;;3.58;95.18;99314.78;5034219;28;20409;-79
2021/12/10 10:58:35;;;;;;;13.50;4.43;;;;;;;3.58;95.14;99317.38;5032492;28;20256;-79
2021/12/10 11:01:20;;;;;;;17.02;4.07;;;;;;;3.57;95.20;99313.94;5043506;28;20049;-79
2021/12/10 11:03:59;;;;;;;25.30;5.85;;;;;;;3.56;95.01;99317.44;5035722;28;20107;-79
2021/12/10 11:06:46;;;;;;;16.08;5.10;;;;;;;3.57;95.04;99316.53;5031425;28;20028;-79
2021/12/10 11:09:17;;;;;;;17.52;4.55;;;;;;;3.56;95.18;99314.84;5027931;28;20071;-79
2021/12/10 11:11:48;;;;;;;20.65;4.63;;;;;;;3.58;95.21;99319.97;5045777;28;20086;-79
2021/12/10 11:14:19;;;;;;;25.02;4.75;;;;;;;3.58;95.09;99320.81;5036722;28;20028;-79
2021/12/10 11:16:46;;;;;;;20.15;3.92;;;;;;;3.58;95.12;99325.16;5043990;28;20028;-79
2021/12/10 11:19:17;;;;;;;13.80;4.35;;;;;;;3.58;95.06;99323.38;5040566;28;20064;-79
2021/12/10 11:21:54;;;;;;;12.18;4.10;;;;;;;3.59;95.21;99327.69;5045134;28;20047;-79
2021/12/10 11:24:21;;;;;;;8.70;3.92;;;;;;;3.59;95.07;99340.63;5047211;28;20060;-79
2021/12/10 11:26:50;;;;;;;11.50;4.13;;;;;;;3.60;95.27;99341.47;5051348;28;20363;-79
2021/12/10 11:29:51;;;;;;;6.88;3.47;;;;;;;3.62;95.31;99342.25;5039762;28;20333;-79
2021/12/10 11:32:28;;;;;;;10.15;4.00;;;;;;;3.64;95.46;99338.72;5009798;28;20045;-79
2021/12/10 11:35:02;;;;;;;12.23;4.45;;;;;;;3.65;95.54;99340.41;5026905;28;20108;-79
2021/12/10 11:37:39;;;;;;;11.57;4.07;;;;;;;3.65;95.53;99342.16;5062091;28;20032;-78
2021/12/10 11:40:07;;;;;;;7.53;4.07;;;;;;;3.67;95.59;99339.50;5031516;28;20055;-79
2021/12/10 11:42:46;;;;;;;5.63;4.13;;;;;;;3.68;95.54;99339.47;5043247;28;20104;-78
2021/12/10 11:45:43;;;;;;;8.10;4.05;;;;;;;3.70;95.48;99348.00;5032210;28;20040;-79
2021/12/10 11:48:12;;;;;;;8.98;3.95;;;;;;;3.71;95.79;99343.66;5023238;28;20268;-78
2021/12/10 11:50:45;;;;;;;6.30;4.28;;;;;;;3.73;95.85;99347.03;5043483;28;20033;-79
2021/12/10 11:53:14;;;;;;;9.68;4.38;;;;;;;3.74;95.62;99343.56;5023661;28;20047;-79
2021/12/10 11:56:05;;;;;;;7.40;4.63;;;;;;;3.74;95.52;99357.34;5008384;28;20325;-79